createdAt,value
2018-01-11T00:02:03.015Z,11.40
2018-01-11T00:04:30.616Z,10.33
2018-01-11T00:06:58.117Z,10.80
2018-01-11T00:09:26.358Z,12.83
2018-01-11T00:11:53.814Z,13.10
2018-01-11T00:14:21.318Z,11.67
2018-01-11T00:16:48.777Z,12.00
2018-01-11T00:19:16.258Z,11.27
2018-01-11T00:21:43.743Z,11.33
2018-01-11T00:24:11.242Z,11.27
2018-01-11T00:26:38.788Z,11.47
2018-01-11T00:29:06.254Z,12.67
2018-01-11T00:31:34.518Z,12.00
2018-01-11T00:34:02.005Z,11.80
2018-01-11T00:36:30.257Z,12.70
2018-01-11T00:38:57.760Z,11.97
2018-01-11T00:41:25.258Z,12.70
2018-01-11T00:43:52.749Z,11.10
2018-01-11T00:46:20.998Z,10.60
2018-01-11T00:48:48.553Z,11.20
2018-01-11T00:51:16.073Z,11.30
2018-01-11T00:53:43.555Z,11.77
2018-01-11T00:56:11.047Z,12.73
2018-01-11T00:58:38.506Z,13.57
2018-01-11T01:01:05.973Z,13.30
2018-01-11T01:03:34.251Z,15.13
2018-01-11T01:06:01.716Z,12.20
2018-01-11T01:08:29.959Z,13.17
2018-01-11T01:10:57.431Z,13.33
2018-01-11T01:13:24.926Z,14.10
2018-01-11T01:15:52.411Z,15.43
2018-01-11T01:18:19.897Z,13.60
2018-01-11T01:20:47.382Z,14.07
2018-01-11T01:23:14.899Z,14.90
2018-01-11T01:25:42.394Z,15.40
2018-01-11T01:28:09.874Z,15.33
2018-01-11T01:30:37.381Z,14.27
2018-01-11T01:33:04.838Z,13.83
2018-01-11T01:35:32.305Z,12.07
2018-01-11T01:37:59.808Z,13.07
2018-01-11T01:40:27.303Z,13.03
2018-01-11T01:42:54.769Z,13.60
2018-01-11T01:45:22.255Z,12.83
2018-01-11T01:47:49.705Z,12.10
2018-01-11T01:50:17.263Z,12.13
2018-01-11T01:52:44.752Z,12.43
2018-01-11T01:55:13.046Z,11.20
2018-01-11T01:57:40.511Z,12.50
2018-01-11T02:00:07.991Z,12.07
2018-01-11T02:02:35.472Z,11.27
2018-01-11T02:05:02.974Z,10.50
2018-01-11T02:07:30.460Z,10.23
2018-01-11T02:09:57.936Z,10.40
2018-01-11T02:12:25.459Z,9.90
2018-01-11T02:14:52.932Z,9.83
2018-01-11T02:17:20.403Z,9.00
2018-01-11T02:19:47.877Z,9.67
2018-01-11T02:22:15.369Z,8.47
2018-01-11T02:24:43.597Z,8.30
2018-01-11T02:27:11.091Z,8.80
2018-01-11T02:29:39.345Z,8.60
2018-01-11T02:32:06.840Z,8.33
2018-01-11T02:34:35.164Z,9.00
2018-01-11T02:37:02.628Z,8.37
2018-01-11T02:39:30.118Z,8.40
2018-01-11T02:41:57.588Z,7.90
2018-01-11T02:44:25.815Z,6.67
2018-01-11T02:46:53.298Z,8.60
2018-01-11T02:49:20.770Z,7.60
2018-01-11T02:51:48.231Z,8.30
2018-01-11T02:54:16.468Z,7.27
2018-01-11T02:56:43.964Z,6.93
2018-01-11T02:59:11.440Z,6.23
2018-01-11T03:01:39.687Z,7.83
2018-01-11T03:04:07.159Z,6.90
2018-01-11T03:06:35.418Z,6.97
2018-01-11T03:09:02.951Z,6.90
2018-01-11T03:11:30.461Z,7.97
2018-01-11T03:13:58.716Z,7.80
2018-01-11T03:16:26.213Z,8.33
2018-01-11T03:18:53.729Z,7.80
2018-01-11T03:21:21.202Z,7.80
2018-01-11T03:23:48.665Z,7.20
2018-01-11T03:26:16.142Z,7.87
2018-01-11T03:28:44.380Z,7.27
2018-01-11T03:31:11.853Z,7.10
2018-01-11T03:33:39.394Z,7.90
2018-01-11T03:36:06.868Z,8.37
2018-01-11T03:38:34.351Z,9.17
2018-01-11T03:41:02.654Z,8.83
2018-01-11T03:43:30.164Z,9.03
2018-01-11T03:45:58.337Z,8.63
2018-01-11T03:48:25.838Z,10.50
2018-01-11T03:50:53.320Z,9.47
2018-01-11T03:53:20.830Z,9.90
2018-01-11T03:55:49.101Z,10.57
2018-01-11T03:58:17.150Z,9.70
2018-01-11T04:00:44.606Z,8.93
2018-01-11T04:03:12.217Z,9.20
2018-01-11T04:05:39.675Z,9.63
2018-01-11T04:08:07.919Z,9.70
2018-01-11T04:10:35.382Z,9.80
2018-01-11T04:13:02.868Z,9.10
2018-01-11T04:15:30.345Z,9.37
2018-01-11T04:17:57.855Z,9.43
2018-01-11T04:20:25.354Z,11.13
2018-01-11T04:22:52.863Z,9.03
2018-01-11T04:25:20.529Z,10.10
2018-01-11T04:27:48.022Z,9.80
2018-01-11T04:30:16.269Z,10.40
2018-01-11T04:32:43.755Z,10.27
2018-01-11T04:35:11.995Z,9.40
2018-01-11T04:37:39.479Z,8.93
2018-01-11T04:40:07.771Z,9.50
2018-01-11T04:42:35.251Z,11.13
2018-01-11T04:45:02.774Z,10.00
2018-01-11T04:47:31.018Z,9.53
2018-01-11T04:49:58.489Z,11.60
2018-01-11T04:52:25.977Z,9.87
2018-01-11T04:54:53.497Z,10.07
2018-01-11T04:57:20.972Z,12.47
2018-01-11T04:59:48.468Z,12.67
2018-01-11T05:02:15.949Z,11.57
2018-01-11T05:04:43.437Z,10.07
2018-01-11T05:07:10.903Z,11.23
2018-01-11T05:09:38.500Z,9.10
2018-01-11T05:12:05.976Z,9.80
2018-01-11T05:14:33.487Z,9.93
2018-01-11T05:17:00.973Z,9.70
2018-01-11T05:19:28.489Z,9.43
2018-01-11T05:21:55.949Z,7.97
2018-01-11T05:24:23.508Z,8.93
2018-01-11T05:26:51.032Z,8.60
2018-01-11T05:29:18.551Z,8.80
2018-01-11T05:31:47.192Z,9.10
2018-01-11T05:34:14.959Z,10.27
2018-01-11T05:36:42.461Z,8.63
2018-01-11T05:39:10.709Z,10.03
2018-01-11T05:41:38.203Z,10.17
2018-01-11T05:44:06.449Z,10.63
2018-01-11T05:46:33.936Z,17.77
2018-01-11T05:49:02.182Z,13.67
2018-01-11T05:51:29.659Z,10.33
2018-01-11T05:53:58.002Z,9.97
2018-01-11T05:56:25.473Z,9.93
2018-01-11T05:58:52.960Z,10.23
2018-01-11T06:01:20.472Z,10.83
2018-01-11T06:03:47.948Z,11.77
2018-01-11T06:06:15.414Z,13.70
2018-01-11T06:08:42.949Z,13.10
2018-01-11T06:11:10.436Z,12.40
2018-01-11T06:13:37.897Z,12.40
2018-01-11T06:16:05.403Z,11.30
2018-01-11T06:18:32.903Z,13.33
2018-01-11T06:21:00.374Z,12.40
2018-01-11T06:23:27.853Z,14.20
2018-01-11T06:25:55.374Z,15.07
2018-01-11T06:28:22.965Z,12.07
2018-01-11T06:30:50.482Z,12.90
2018-01-11T06:33:17.936Z,11.30
2018-01-11T06:35:45.430Z,11.57
2018-01-11T06:38:13.733Z,13.67
2018-01-11T06:40:41.241Z,13.47
2018-01-11T06:43:08.719Z,13.60
2018-01-11T06:45:36.209Z,14.47
2018-01-11T06:48:04.449Z,13.93
2018-01-11T06:50:31.913Z,14.20
2018-01-11T06:52:59.444Z,15.00
2018-01-11T06:55:26.929Z,15.00
2018-01-11T06:57:54.427Z,13.63
2018-01-11T07:00:21.902Z,14.53
2018-01-11T07:02:49.407Z,14.70
2018-01-11T07:05:16.929Z,13.63
2018-01-11T07:07:44.410Z,13.13
2018-01-11T07:10:11.864Z,13.73
2018-01-11T07:12:39.356Z,14.67
2018-01-11T07:15:06.849Z,14.47
2018-01-11T07:17:34.310Z,14.17
2018-01-11T07:20:01.803Z,13.30
2018-01-11T07:22:29.282Z,12.10
2018-01-11T07:24:56.790Z,11.83
2018-01-11T07:27:24.279Z,12.20
2018-01-11T07:29:52.525Z,13.07
2018-01-11T07:32:20.045Z,12.40
2018-01-11T07:34:48.311Z,11.47
2018-01-11T07:37:15.799Z,13.73
2018-01-11T07:39:43.296Z,13.80
2018-01-11T07:42:10.800Z,13.20
2018-01-11T07:44:38.324Z,13.03
2018-01-11T07:47:05.802Z,14.63
2018-01-11T07:49:33.310Z,12.87
2018-01-11T07:52:00.808Z,13.93
2018-01-11T07:54:28.293Z,13.87
2018-01-11T07:56:55.816Z,15.43
2018-01-11T07:59:23.308Z,12.90
2018-01-11T08:01:51.574Z,12.67
2018-01-11T08:04:19.142Z,13.03
2018-01-11T08:06:46.609Z,12.83
2018-01-11T08:09:14.878Z,12.20
2018-01-11T08:11:42.358Z,12.70
2018-01-11T08:14:10.613Z,11.20
2018-01-11T08:16:38.098Z,12.60
2018-01-11T08:19:06.346Z,10.93
2018-01-11T08:21:33.862Z,11.00
2018-01-11T08:24:01.355Z,12.80
2018-01-11T08:26:28.841Z,12.13
2018-01-11T08:28:57.098Z,13.00
2018-01-11T08:31:24.567Z,16.27
2018-01-11T08:33:52.824Z,13.90
2018-01-11T08:36:20.295Z,15.00
2018-01-11T08:38:47.766Z,14.00
2018-01-11T08:41:15.997Z,15.40
2018-01-11T08:43:43.494Z,16.10
2018-01-11T08:46:11.740Z,13.60
2018-01-11T08:48:39.250Z,16.27
2018-01-11T08:51:06.777Z,13.80
2018-01-11T08:53:34.316Z,15.57
2018-01-11T08:56:01.824Z,17.00
2018-01-11T08:58:29.294Z,14.10
2018-01-11T09:00:56.784Z,15.80
2018-01-11T09:03:24.300Z,15.17
2018-01-11T09:05:51.770Z,16.00
2018-01-11T09:08:19.270Z,17.80
2018-01-11T09:10:46.756Z,16.57
2018-01-11T09:13:14.998Z,17.73
2018-01-11T09:15:42.480Z,17.97
2018-01-11T09:18:09.969Z,17.47
2018-01-11T09:20:38.201Z,18.47
2018-01-11T09:23:05.672Z,18.47
2018-01-11T09:25:33.150Z,18.50
2018-01-11T09:28:01.399Z,17.20
2018-01-11T09:30:28.970Z,19.53
2018-01-11T09:32:56.443Z,17.23
2018-01-11T09:35:24.732Z,17.83
2018-01-11T09:37:52.990Z,17.57
2018-01-11T09:40:20.461Z,16.63
2018-01-11T09:42:48.755Z,17.07
2018-01-11T09:45:16.282Z,18.17
2018-01-11T09:47:43.771Z,16.20
2018-01-11T09:50:11.283Z,17.27
2018-01-11T09:52:38.809Z,16.70
2018-01-11T09:55:06.563Z,18.70
2018-01-11T09:57:34.168Z,17.10
2018-01-11T10:00:01.632Z,18.43
2018-01-11T10:02:29.188Z,17.70
2018-01-11T10:04:56.688Z,18.20
2018-01-11T10:07:24.189Z,15.83
2018-01-11T10:09:51.659Z,19.57
2018-01-11T10:12:19.143Z,17.73
2018-01-11T10:14:47.707Z,17.60
2018-01-11T10:17:15.211Z,16.60
2018-01-11T10:19:42.728Z,17.27
2018-01-11T10:22:10.240Z,14.07
2018-01-11T10:24:37.709Z,17.40
2018-01-11T10:27:05.177Z,19.83
2018-01-11T10:29:32.661Z,16.77
2018-01-11T10:32:00.167Z,16.00
2018-01-11T10:34:27.673Z,14.93
2018-01-11T10:36:55.216Z,16.27
2018-01-11T10:39:22.687Z,12.60
2018-01-11T10:41:50.157Z,12.73
2018-01-11T10:44:18.409Z,11.10
2018-01-11T10:46:45.882Z,12.03
2018-01-11T10:49:13.385Z,12.87
2018-01-11T10:51:41.642Z,12.70
2018-01-11T10:54:09.890Z,11.50
2018-01-11T10:56:37.394Z,11.90
2018-01-11T10:59:04.854Z,11.70
2018-01-11T11:01:37.948Z,11.10
2018-01-11T11:04:05.424Z,12.53
2018-01-11T11:06:32.900Z,11.30
2018-01-11T11:09:00.398Z,11.43
2018-01-11T11:11:28.696Z,11.63
2018-01-11T11:13:56.952Z,12.93
2018-01-11T11:16:25.242Z,13.60
2018-01-11T11:18:53.591Z,11.50
2018-01-11T11:21:21.086Z,10.53
2018-01-11T11:23:49.390Z,10.80
2018-01-11T11:26:16.856Z,10.27
2018-01-11T11:28:44.345Z,9.90
2018-01-11T11:31:11.812Z,9.10
2018-01-11T11:33:39.326Z,12.33
2018-01-11T11:36:06.782Z,13.30
2018-01-11T11:38:34.451Z,12.50
2018-01-11T11:41:01.942Z,12.83
2018-01-11T11:43:29.434Z,14.80
2018-01-11T11:45:57.666Z,15.63
2018-01-11T11:48:25.276Z,14.97
2018-01-11T11:50:53.533Z,15.43
2018-01-11T11:53:21.832Z,14.97
2018-01-11T11:55:50.061Z,14.13
2018-01-11T11:58:17.556Z,16.13
2018-01-11T12:00:45.080Z,15.20
2018-01-11T12:03:12.780Z,16.40
2018-01-11T12:05:40.527Z,15.00
2018-01-11T12:08:08.079Z,15.80
2018-01-11T12:10:35.563Z,16.87
2018-01-11T12:13:03.957Z,16.97
2018-01-11T12:15:31.761Z,16.30
2018-01-11T12:18:00.055Z,16.27
2018-01-11T12:20:27.530Z,15.90
2018-01-11T12:22:55.024Z,16.53
2018-01-11T12:25:22.490Z,16.27
2018-01-11T12:27:49.978Z,16.03
2018-01-11T12:30:17.472Z,16.20
2018-01-11T12:32:45.724Z,17.73
2018-01-11T12:35:13.242Z,17.70
2018-01-11T12:37:40.776Z,17.13
2018-01-11T12:40:09.043Z,17.53
2018-01-11T12:42:36.587Z,16.90
2018-01-11T12:45:04.139Z,17.10
2018-01-11T12:47:32.394Z,14.77
2018-01-11T12:49:59.883Z,15.37
2018-01-11T12:52:27.338Z,14.17
2018-01-11T12:54:55.596Z,14.87
2018-01-11T12:57:23.929Z,17.60
2018-01-11T12:59:52.681Z,15.13
2018-01-11T13:02:20.334Z,16.93
2018-01-11T13:04:47.821Z,16.60
2018-01-11T13:07:16.067Z,18.30
2018-01-11T13:09:43.536Z,18.23
2018-01-11T13:12:11.028Z,16.17
2018-01-11T13:14:39.297Z,17.10
2018-01-11T13:17:07.589Z,16.00
2018-01-11T13:19:35.829Z,15.77
2018-01-11T13:22:03.359Z,15.47
2018-01-11T13:24:30.848Z,15.53
2018-01-11T13:26:58.658Z,15.63
2018-01-11T13:29:26.120Z,14.97
2018-01-11T13:31:53.617Z,14.33
2018-01-11T13:34:21.106Z,13.50
2018-01-11T13:36:49.377Z,10.87
2018-01-11T13:39:16.842Z,12.70
2018-01-11T13:41:45.089Z,11.53
2018-01-11T13:44:12.594Z,12.00
2018-01-11T13:46:40.137Z,11.77
2018-01-11T13:49:08.128Z,13.23
2018-01-11T13:51:35.623Z,14.50
2018-01-11T13:54:03.099Z,14.90
2018-01-11T13:56:30.591Z,15.77
2018-01-11T13:58:59.067Z,16.97
2018-01-11T14:01:27.308Z,13.67
2018-01-11T14:03:54.810Z,14.37
2018-01-11T14:06:23.051Z,15.40
2018-01-11T14:08:50.536Z,15.40
2018-01-11T14:11:18.139Z,15.13
2018-01-11T14:13:45.674Z,14.70
2018-01-11T14:16:13.200Z,17.20
2018-01-11T14:18:41.462Z,20.37
2018-01-11T14:21:09.664Z,18.40
2018-01-11T14:23:37.132Z,20.97
2018-01-11T14:26:04.627Z,21.90
2018-01-11T14:28:32.094Z,22.60
2018-01-11T14:30:59.571Z,23.93
2018-01-11T14:33:27.250Z,22.30
2018-01-11T14:35:55.626Z,23.43
2018-01-11T14:38:23.090Z,22.37
2018-01-11T14:40:50.609Z,22.27
2018-01-11T14:43:18.079Z,23.67
2018-01-11T14:45:45.545Z,24.03
2018-01-11T14:48:13.026Z,24.30
2018-01-11T14:50:40.503Z,25.23
2018-01-11T14:53:08.762Z,23.33
2018-01-11T14:55:36.270Z,22.90
2018-01-11T14:58:03.772Z,23.33
2018-01-11T15:00:31.243Z,26.27
2018-01-11T15:02:59.491Z,26.03
2018-01-11T15:05:28.338Z,27.50
2018-01-11T15:07:55.827Z,24.40
2018-01-11T15:10:23.314Z,26.50
2018-01-11T15:12:51.568Z,24.43
2018-01-11T15:15:19.266Z,23.83
2018-01-11T15:17:47.215Z,26.80
2018-01-11T15:20:14.708Z,26.87
2018-01-11T15:22:43.670Z,26.70
2018-01-11T15:25:11.232Z,28.00
2018-01-11T15:27:38.697Z,25.90
2018-01-11T15:30:06.211Z,30.00
2018-01-11T15:32:33.697Z,28.13
2018-01-11T15:35:02.409Z,30.97
2018-01-11T15:37:29.945Z,28.27
2018-01-11T15:39:57.452Z,29.90
2018-01-11T15:42:24.964Z,29.10
2018-01-11T15:44:52.502Z,30.07
2018-01-11T15:47:20.032Z,31.80
2018-01-11T15:49:47.483Z,31.70
2018-01-11T15:52:15.748Z,31.70
2018-01-11T15:54:43.999Z,28.50
2018-01-11T15:57:11.516Z,31.67
2018-01-11T15:59:39.053Z,31.13
2018-01-11T16:02:07.593Z,31.07
2018-01-11T16:04:35.941Z,32.20
2018-01-11T16:07:03.495Z,31.07
2018-01-11T16:09:30.970Z,32.50
2018-01-11T16:11:58.453Z,32.70
2018-01-11T16:14:26.074Z,31.17
2018-01-11T16:16:53.572Z,33.20
2018-01-11T16:19:21.097Z,32.23
2018-01-11T16:21:48.627Z,31.10
2018-01-11T16:24:16.389Z,32.60
2018-01-11T16:26:44.656Z,33.03
2018-01-11T16:29:12.124Z,34.60
2018-01-11T16:31:40.380Z,32.90
2018-01-11T16:34:07.900Z,30.43
2018-01-11T16:36:35.398Z,34.33
2018-01-11T16:39:02.900Z,31.83
2018-01-11T16:41:30.361Z,33.73
2018-01-11T16:43:57.851Z,30.97
2018-01-11T16:46:25.376Z,33.50
2018-01-11T16:48:52.870Z,34.00
2018-01-11T16:51:20.366Z,33.20
2018-01-11T16:53:48.619Z,34.43
2018-01-11T16:56:16.130Z,31.33
2018-01-11T16:58:43.854Z,32.70
2018-01-11T17:01:11.346Z,34.07
2018-01-11T17:03:39.610Z,39.00
2018-01-11T17:06:07.916Z,33.10
2018-01-11T17:08:36.022Z,34.60
2018-01-11T17:11:03.553Z,35.30
2018-01-11T17:13:31.013Z,33.23
2018-01-11T17:15:59.117Z,34.23
2018-01-11T17:18:26.595Z,35.23
2018-01-11T17:20:54.123Z,35.97
2018-01-11T17:23:21.624Z,32.13
2018-01-11T17:25:49.868Z,33.40
2018-01-11T17:28:17.520Z,38.87
2018-01-11T17:30:45.022Z,38.70
2018-01-11T17:33:12.537Z,41.90
2018-01-11T17:35:40.032Z,37.93
2018-01-11T17:38:07.533Z,36.53
2018-01-11T17:40:35.316Z,40.50
2018-01-11T17:43:02.801Z,41.40
2018-01-11T17:45:30.486Z,38.33
2018-01-11T17:47:58.728Z,40.33
2018-01-11T17:50:26.186Z,41.80
2018-01-11T17:52:53.690Z,38.90
2018-01-11T17:55:21.941Z,40.50
2018-01-11T17:57:49.436Z,37.13
2018-01-11T18:00:16.915Z,39.63
2018-01-11T18:02:44.398Z,42.23
2018-01-11T18:05:11.983Z,44.13
2018-01-11T18:07:40.390Z,44.83
2018-01-11T18:10:07.911Z,46.63
2018-01-11T18:12:36.230Z,46.47
2018-01-11T18:15:03.769Z,47.67
2018-01-11T18:17:32.000Z,45.80
2018-01-11T18:19:59.580Z,45.10
2018-01-11T18:22:27.120Z,44.47
2018-01-11T18:24:54.599Z,46.20
2018-01-11T18:27:22.099Z,48.60
2018-01-11T18:29:50.413Z,48.90
2018-01-11T18:32:17.900Z,45.73
2018-01-11T18:34:45.490Z,47.97
2018-01-11T18:37:14.400Z,48.20
2018-01-11T18:39:41.896Z,52.37
2018-01-11T18:42:09.412Z,51.20
2018-01-11T18:44:37.290Z,54.80
2018-01-11T18:47:05.204Z,66.40
2018-01-11T18:49:32.686Z,68.50
2018-01-11T18:52:00.941Z,64.27
2018-01-11T18:54:28.407Z,54.20
2018-01-11T18:56:56.682Z,54.27
2018-01-11T18:59:25.693Z,43.43
2018-01-11T19:01:54.134Z,49.80
2018-01-11T19:04:22.900Z,45.33
2018-01-11T19:06:51.313Z,50.00
2018-01-11T19:09:18.809Z,49.37
2018-01-11T19:11:48.497Z,48.00
2018-01-11T19:14:16.486Z,51.30
2018-01-11T19:16:44.537Z,52.23
2018-01-11T19:19:12.068Z,49.17
2018-01-11T19:21:39.574Z,51.17
2018-01-11T19:24:08.020Z,56.40
2018-01-11T19:26:35.516Z,50.57
2018-01-11T19:29:03.006Z,52.53
2018-01-11T19:31:30.691Z,51.70
2018-01-11T19:33:58.185Z,48.67
2018-01-11T19:36:25.683Z,51.97
2018-01-11T19:38:53.160Z,49.27
2018-01-11T19:41:20.659Z,50.03
2018-01-11T19:43:48.263Z,52.70
2018-01-11T19:46:15.742Z,51.07
2018-01-11T19:48:43.240Z,48.20
2018-01-11T19:51:10.755Z,52.20
2018-01-11T19:53:38.263Z,50.03
2018-01-11T19:56:06.558Z,48.40
2018-01-11T19:58:34.864Z,52.87
2018-01-11T20:01:02.404Z,52.27
2018-01-11T20:03:29.917Z,51.40
2018-01-11T20:05:57.886Z,50.40
2018-01-11T20:08:25.634Z,50.67
2018-01-11T20:10:53.175Z,56.70
2018-01-11T20:13:20.696Z,52.17
2018-01-11T20:15:49.008Z,52.13
2018-01-11T20:18:16.484Z,50.90
2018-01-11T20:20:44.355Z,54.03
2018-01-11T20:23:12.149Z,55.00
2018-01-11T20:25:39.629Z,52.73
2018-01-11T20:28:07.959Z,51.60
2018-01-11T20:30:35.458Z,49.13
2018-01-11T20:33:02.987Z,49.80
2018-01-11T20:35:30.475Z,49.67
2018-01-11T20:37:58.800Z,52.00
2018-01-11T20:40:26.359Z,48.17
2018-01-11T20:42:53.915Z,49.70
2018-01-11T20:45:21.577Z,51.50
2018-01-11T20:47:49.078Z,50.10
2018-01-11T20:50:16.575Z,48.00
2018-01-11T20:52:44.102Z,50.97
2018-01-11T20:55:11.625Z,43.93
2018-01-11T20:57:39.174Z,44.43
2018-01-11T21:00:06.685Z,45.50
2018-01-11T21:02:34.938Z,48.47
2018-01-11T21:05:02.588Z,52.83
2018-01-11T21:07:30.146Z,48.20
2018-01-11T21:09:58.033Z,46.97
2018-01-11T21:12:25.553Z,48.70
2018-01-11T21:14:53.055Z,48.10
2018-01-11T21:17:20.755Z,48.70
2018-01-11T21:19:49.092Z,48.77
2018-01-11T21:22:16.605Z,48.83
2018-01-11T21:24:44.109Z,49.63
2018-01-11T21:27:11.601Z,53.40
2018-01-11T21:29:39.954Z,52.13
2018-01-11T21:32:07.442Z,51.80
2018-01-11T21:34:35.709Z,51.20
2018-01-11T21:37:03.272Z,51.70
2018-01-11T21:39:31.018Z,55.07
2018-01-11T21:41:58.516Z,53.57
2018-01-11T21:44:25.992Z,56.10
2018-01-11T21:46:53.595Z,54.63
2018-01-11T21:49:21.152Z,56.40
2018-01-11T21:51:48.613Z,53.70
2018-01-11T21:54:16.150Z,52.77
2018-01-11T21:56:44.341Z,52.00
2018-01-11T21:59:11.813Z,52.60
2018-01-11T22:01:39.468Z,52.13
2018-01-11T22:04:06.991Z,55.13
2018-01-11T22:06:34.475Z,53.70
2018-01-11T22:09:01.958Z,58.40
2018-01-11T22:11:29.502Z,57.57
2018-01-11T22:13:57.795Z,65.13
2018-01-11T22:16:25.269Z,58.47
2018-01-11T22:18:53.519Z,63.97
2018-01-11T22:21:21.005Z,63.17
2018-01-11T22:23:49.250Z,65.60
2018-01-11T22:26:16.783Z,63.50
2018-01-11T22:28:44.459Z,63.30
2018-01-11T22:31:11.971Z,66.60
2018-01-11T22:33:40.240Z,67.00
2018-01-11T22:36:08.534Z,66.27
2018-01-11T22:38:36.064Z,68.07
2018-01-11T22:41:03.551Z,69.53
2018-01-11T22:43:31.051Z,67.50
2018-01-11T22:45:59.354Z,68.80
2018-01-11T22:48:26.838Z,75.30
2018-01-11T22:50:54.369Z,74.90
2018-01-11T22:53:21.843Z,71.90
2018-01-11T22:55:50.128Z,70.00
2018-01-11T22:58:18.388Z,69.90
2018-01-11T23:00:45.916Z,74.00
2018-01-11T23:03:13.403Z,77.97
2018-01-11T23:05:40.873Z,74.60
2018-01-11T23:08:09.295Z,78.83
2018-01-11T23:10:36.774Z,79.07
2018-01-11T23:13:04.282Z,77.93
2018-01-11T23:15:32.528Z,76.17
2018-01-11T23:17:59.997Z,75.13
2018-01-11T23:20:28.256Z,77.10
2018-01-11T23:22:55.737Z,81.87
2018-01-11T23:25:24.009Z,84.33
2018-01-11T23:27:51.517Z,78.07
2018-01-11T23:30:19.354Z,81.47
2018-01-11T23:32:47.598Z,84.57
2018-01-11T23:35:15.078Z,79.77
2018-01-11T23:37:43.368Z,79.60
2018-01-11T23:40:11.666Z,76.80
2018-01-11T23:42:39.148Z,83.47
2018-01-11T23:45:06.647Z,74.27
2018-01-11T23:47:34.885Z,75.13
2018-01-11T23:50:02.356Z,76.40
2018-01-11T23:52:29.845Z,71.30
2018-01-11T23:54:58.093Z,79.20
2018-01-11T23:57:25.581Z,77.70
2018-01-11T23:59:53.888Z,82.50
